Time;durP1;ratioP1;P1;durP2;ratioP2;P2;SDS_P1;SDS_P2;PMS_P1;PMS_P2;Temp;Humidity;BMP_temperature;BMP_pressure;BME280_temperature;BME280_humidity;BME280_pressure;Samples;Min_cycle;Max_cycle;Signal;HPM_P1;HPM_P2
2021/01/28 00:01:26;;;;;;;;;;;21.30;32.40;;;;;;467841;253;2205;-68
2021/01/28 00:03:27;;;;;;;;;;;21.40;32.30;;;;;;467790;253;1091;-67
2021/01/28 00:05:28;;;;;;;;;;;21.40;32.30;;;;;;467809;253;1140;-67
2021/01/28 00:07:30;;;;;;;;;;;21.40;32.30;;;;;;467760;254;1298;-68
2021/01/28 00:09:31;;;;;;;;;;;21.40;32.20;;;;;;467928;253;1067;-67
2021/01/28 00:11:32;;;;;;;;;;;21.40;32.20;;;;;;467813;253;1353;-68
2021/01/28 00:13:33;;;;;;;;;;;21.40;32.10;;;;;;467849;254;997;-67
2021/01/28 00:15:35;;;;;;;;;;;21.40;32.00;;;;;;467850;253;992;-67
2021/01/28 00:17:36;;;;;;;;;;;21.40;32.00;;;;;;467855;253;1182;-67
2021/01/28 00:19:37;;;;;;;;;;;21.40;31.90;;;;;;467814;254;1003;-67
2021/01/28 00:21:39;;;;;;;;;;;21.30;31.80;;;;;;467836;253;2145;-67
2021/01/28 00:23:40;;;;;;;;;;;21.40;31.80;;;;;;467854;253;999;-67
2021/01/28 00:25:41;;;;;;;;;;;21.40;31.80;;;;;;467813;253;974;-68
2021/01/28 00:27:42;;;;;;;;;;;21.40;31.80;;;;;;467804;253;1278;-67
2021/01/28 00:29:44;;;;;;;;;;;21.40;31.70;;;;;;467849;251;986;-67
2021/01/28 00:31:45;;;;;;;;;;;21.40;31.70;;;;;;467826;254;1068;-67
2021/01/28 00:33:46;;;;;;;;;;;21.40;31.60;;;;;;467801;254;1090;-68
2021/01/28 00:35:47;;;;;;;;;;;21.40;31.60;;;;;;467799;254;1156;-67
2021/01/28 00:37:49;;;;;;;;;;;21.40;31.60;;;;;;467787;253;963;-67
2021/01/28 00:39:50;;;;;;;;;;;21.40;31.50;;;;;;467791;253;1246;-67
2021/01/28 00:41:51;;;;;;;;;;;21.40;31.40;;;;;;467767;253;2164;-67
2021/01/28 00:43:53;;;;;;;;;;;21.40;31.40;;;;;;467827;253;983;-67
2021/01/28 00:45:54;;;;;;;;;;;21.40;31.30;;;;;;467859;254;1181;-67
2021/01/28 00:47:55;;;;;;;;;;;21.40;31.30;;;;;;467477;255;1524;-68
2021/01/28 00:49:56;;;;;;;;;;;21.40;31.30;;;;;;467856;253;1335;-67
2021/01/28 00:51:58;;;;;;;;;;;21.40;31.20;;;;;;467802;254;976;-67
2021/01/28 00:53:59;;;;;;;;;;;21.40;31.20;;;;;;467797;253;1062;-67
2021/01/28 00:56:00;;;;;;;;;;;21.40;31.20;;;;;;467628;255;2089;-68
2021/01/28 00:58:02;;;;;;;;;;;21.40;31.10;;;;;;467870;254;1252;-67
2021/01/28 01:00:03;;;;;;;;;;;21.40;31.10;;;;;;467785;253;1031;-67
2021/01/28 01:02:04;;;;;;;;;;;21.50;31.10;;;;;;467773;253;2192;-67
2021/01/28 01:04:05;;;;;;;;;;;21.40;31.10;;;;;;467893;253;933;-67
2021/01/28 01:06:07;;;;;;;;;;;21.40;31.00;;;;;;467769;254;1072;-67
2021/01/28 01:08:08;;;;;;;;;;;21.40;31.00;;;;;;467780;254;975;-67
2021/01/28 01:10:09;;;;;;;;;;;21.40;31.00;;;;;;467774;253;984;-67
2021/01/28 01:12:11;;;;;;;;;;;21.50;31.00;;;;;;467761;254;1341;-67
2021/01/28 01:14:12;;;;;;;;;;;21.40;30.90;;;;;;467833;253;1056;-67
2021/01/28 01:16:13;;;;;;;;;;;21.40;30.80;;;;;;467796;254;1017;-67
2021/01/28 01:18:14;;;;;;;;;;;21.50;30.90;;;;;;467864;253;964;-67
2021/01/28 01:20:18;;;;;;;;;;;21.50;30.80;;;;;;467760;254;1022;-67
2021/01/28 01:22:19;;;;;;;;;;;21.40;30.80;;;;;;467766;253;2148;-67
2021/01/28 01:24:21;;;;;;;;;;;21.40;30.70;;;;;;467582;255;2123;-67
2021/01/28 01:26:22;;;;;;;;;;;21.40;30.70;;;;;;467773;253;1082;-67
2021/01/28 01:28:23;;;;;;;;;;;21.40;30.70;;;;;;467813;254;1240;-67
2021/01/28 01:30:24;;;;;;;;;;;21.40;30.70;;;;;;467820;253;1053;-67
2021/01/28 01:32:26;;;;;;;;;;;21.40;30.70;;;;;;467827;253;987;-68
2021/01/28 01:34:27;;;;;;;;;;;21.40;30.60;;;;;;467841;253;999;-67
2021/01/28 01:36:28;;;;;;;;;;;21.50;30.60;;;;;;467825;253;964;-67
2021/01/28 01:38:29;;;;;;;;;;;21.40;30.60;;;;;;467849;253;1113;-67
2021/01/28 01:40:31;;;;;;;;;;;21.40;30.60;;;;;;467755;254;1390;-67
2021/01/28 01:42:32;;;;;;;;;;;21.40;30.60;;;;;;467775;254;2205;-67
2021/01/28 01:44:33;;;;;;;;;;;21.40;30.50;;;;;;467852;253;974;-67
2021/01/28 01:46:35;;;;;;;;;;;21.40;30.60;;;;;;467818;254;1054;-67
2021/01/28 01:48:36;;;;;;;;;;;21.40;30.50;;;;;;467789;253;1137;-67
2021/01/28 01:50:37;;;;;;;;;;;21.40;30.50;;;;;;467772;253;1549;-68
2021/01/28 01:52:39;;;;;;;;;;;21.40;30.50;;;;;;467841;254;1092;-68
2021/01/28 01:54:40;;;;;;;;;;;21.40;30.50;;;;;;467807;253;1129;-68
2021/01/28 01:56:41;;;;;;;;;;;21.40;30.50;;;;;;467728;253;1149;-67
2021/01/28 01:58:43;;;;;;;;;;;21.40;30.40;;;;;;467868;253;1202;-67
2021/01/28 02:00:44;;;;;;;;;;;21.40;30.50;;;;;;467797;253;1351;-67
2021/01/28 02:02:45;;;;;;;;;;;21.40;30.40;;;;;;467808;254;2136;-67
2021/01/28 02:04:47;;;;;;;;;;;21.40;30.40;;;;;;467802;253;960;-67
2021/01/28 02:06:48;;;;;;;;;;;21.40;30.40;;;;;;467762;253;1206;-68
2021/01/28 02:08:49;;;;;;;;;;;21.40;30.40;;;;;;467851;253;997;-67
2021/01/28 02:10:50;;;;;;;;;;;21.40;30.40;;;;;;467718;252;1165;-67
2021/01/28 02:12:52;;;;;;;;;;;21.40;30.40;;;;;;467784;254;1211;-67
2021/01/28 02:14:53;;;;;;;;;;;21.40;30.40;;;;;;467806;253;1054;-67
2021/01/28 02:16:54;;;;;;;;;;;21.40;30.30;;;;;;467704;252;1660;-67
2021/01/28 02:18:55;;;;;;;;;;;21.40;30.30;;;;;;467831;253;951;-67
2021/01/28 02:20:57;;;;;;;;;;;21.40;30.40;;;;;;467755;249;1289;-67
2021/01/28 02:22:58;;;;;;;;;;;21.40;30.30;;;;;;467839;254;2153;-67
2021/01/28 02:25:00;;;;;;;;;;;21.40;30.30;;;;;;467866;253;1130;-67
2021/01/28 02:27:01;;;;;;;;;;;21.30;30.30;;;;;;467793;253;1426;-68
2021/01/28 02:29:02;;;;;;;;;;;21.40;30.30;;;;;;467738;253;1223;-68
2021/01/28 02:31:04;;;;;;;;;;;21.40;30.30;;;;;;467788;253;985;-67
2021/01/28 02:33:05;;;;;;;;;;;21.40;30.30;;;;;;467808;253;1134;-67
2021/01/28 02:35:06;;;;;;;;;;;21.40;30.30;;;;;;467790;253;1067;-67
2021/01/28 02:37:07;;;;;;;;;;;21.40;30.30;;;;;;467783;254;985;-67
2021/01/28 02:39:09;;;;;;;;;;;21.40;30.30;;;;;;467883;253;949;-67
2021/01/28 02:41:10;;;;;;;;;;;21.30;30.20;;;;;;467844;253;1033;-67
2021/01/28 02:43:12;;;;;;;;;;;21.40;30.30;;;;;;467901;253;2188;-67
2021/01/28 02:45:13;;;;;;;;;;;21.40;30.30;;;;;;467854;253;980;-67
2021/01/28 02:47:15;;;;;;;;;;;21.40;30.20;;;;;;467778;253;1012;-67
2021/01/28 02:49:16;;;;;;;;;;;21.40;30.20;;;;;;467819;253;1031;-67
2021/01/28 02:51:17;;;;;;;;;;;21.40;30.20;;;;;;467822;254;972;-67
2021/01/28 02:53:19;;;;;;;;;;;21.40;30.20;;;;;;467885;253;1036;-68
2021/01/28 02:55:20;;;;;;;;;;;21.40;30.10;;;;;;467814;254;1097;-67
2021/01/28 02:57:21;;;;;;;;;;;21.40;30.10;;;;;;467808;253;1203;-67
2021/01/28 02:59:23;;;;;;;;;;;21.40;30.20;;;;;;467797;254;1143;-67
2021/01/28 03:01:24;;;;;;;;;;;21.40;30.10;;;;;;467837;254;1056;-68
2021/01/28 03:03:25;;;;;;;;;;;21.40;30.10;;;;;;467805;253;2149;-67
2021/01/28 03:05:26;;;;;;;;;;;21.40;30.10;;;;;;467796;254;1103;-67
2021/01/28 03:07:28;;;;;;;;;;;21.40;30.10;;;;;;467866;253;1114;-67
2021/01/28 03:09:29;;;;;;;;;;;21.40;30.10;;;;;;467820;254;1131;-67
2021/01/28 03:11:30;;;;;;;;;;;21.40;30.00;;;;;;467781;255;1252;-67
2021/01/28 03:13:31;;;;;;;;;;;21.40;30.00;;;;;;467845;254;1232;-68
2021/01/28 03:15:33;;;;;;;;;;;21.40;30.00;;;;;;467790;253;1104;-68
2021/01/28 03:17:34;;;;;;;;;;;21.40;30.00;;;;;;467812;253;986;-67
2021/01/28 03:19:35;;;;;;;;;;;21.40;30.00;;;;;;467872;253;1061;-67
2021/01/28 03:21:37;;;;;;;;;;;21.40;30.00;;;;;;467863;253;992;-67
2021/01/28 03:23:38;;;;;;;;;;;21.40;30.00;;;;;;467821;253;2185;-67
2021/01/28 03:25:39;;;;;;;;;;;21.40;30.00;;;;;;467855;254;1247;-67
2021/01/28 03:27:40;;;;;;;;;;;21.40;30.00;;;;;;467762;253;1193;-68
2021/01/28 03:29:42;;;;;;;;;;;21.40;30.00;;;;;;467864;253;983;-67
2021/01/28 03:31:43;;;;;;;;;;;21.40;30.00;;;;;;467815;251;1349;-67
2021/01/28 03:33:44;;;;;;;;;;;21.40;30.00;;;;;;467815;253;990;-68
2021/01/28 03:35:46;;;;;;;;;;;21.40;30.00;;;;;;467868;253;1339;-67
2021/01/28 03:37:47;;;;;;;;;;;21.40;30.00;;;;;;467795;253;1105;-67
2021/01/28 03:39:48;;;;;;;;;;;21.40;30.00;;;;;;467765;253;1016;-67
2021/01/28 03:41:49;;;;;;;;;;;21.40;30.00;;;;;;467815;252;1057;-67
2021/01/28 03:43:51;;;;;;;;;;;21.40;30.00;;;;;;467808;253;2188;-67
2021/01/28 03:45:52;;;;;;;;;;;21.40;30.00;;;;;;467818;253;998;-68
2021/01/28 03:47:53;;;;;;;;;;;21.50;30.00;;;;;;467821;254;1037;-67
2021/01/28 03:49:54;;;;;;;;;;;21.40;30.00;;;;;;467822;253;952;-68
2021/01/28 03:51:56;;;;;;;;;;;21.50;30.00;;;;;;467784;253;1058;-67
2021/01/28 03:53:57;;;;;;;;;;;21.40;30.00;;;;;;467869;253;1063;-67
2021/01/28 03:55:58;;;;;;;;;;;21.50;30.00;;;;;;467796;254;982;-67
2021/01/28 03:58:00;;;;;;;;;;;21.50;30.00;;;;;;467805;254;1358;-67
2021/01/28 04:00:01;;;;;;;;;;;21.40;30.00;;;;;;467808;254;998;-67
2021/01/28 04:02:04;;;;;;;;;;;21.40;30.00;;;;;;467895;253;1086;-67
2021/01/28 04:04:06;;;;;;;;;;;21.40;30.00;;;;;;467751;254;2137;-67
2021/01/28 04:06:07;;;;;;;;;;;21.40;30.00;;;;;;467884;253;1064;-67
2021/01/28 04:08:08;;;;;;;;;;;21.40;30.00;;;;;;467800;253;1020;-67
2021/01/28 04:10:09;;;;;;;;;;;21.40;30.00;;;;;;467778;254;1006;-67
2021/01/28 04:12:13;;;;;;;;;;;21.40;30.00;;;;;;467799;254;1018;-67
2021/01/28 04:14:14;;;;;;;;;;;21.40;30.00;;;;;;467853;253;1208;-67
2021/01/28 04:16:16;;;;;;;;;;;21.40;30.00;;;;;;467873;253;977;-67
2021/01/28 04:18:17;;;;;;;;;;;21.40;30.00;;;;;;467780;254;1213;-67
2021/01/28 04:20:18;;;;;;;;;;;21.40;30.00;;;;;;467832;253;1278;-68
2021/01/28 04:22:19;;;;;;;;;;;21.40;30.00;;;;;;467830;254;1000;-68
2021/01/28 04:24:21;;;;;;;;;;;21.30;30.00;;;;;;467808;253;2196;-67
2021/01/28 04:26:22;;;;;;;;;;;21.30;30.00;;;;;;467734;253;967;-67
2021/01/28 04:28:23;;;;;;;;;;;21.30;30.10;;;;;;467777;253;1675;-67
2021/01/28 04:30:24;;;;;;;;;;;21.30;30.10;;;;;;467783;253;992;-67
2021/01/28 04:32:26;;;;;;;;;;;21.30;30.10;;;;;;467758;253;1042;-68
2021/01/28 04:34:27;;;;;;;;;;;21.30;30.10;;;;;;467802;253;1264;-67
2021/01/28 04:36:29;;;;;;;;;;;21.30;30.10;;;;;;467775;253;991;-67
2021/01/28 04:38:30;;;;;;;;;;;21.30;30.10;;;;;;467803;254;960;-67
2021/01/28 04:40:32;;;;;;;;;;;21.20;30.10;;;;;;467745;254;1206;-67
2021/01/28 04:42:33;;;;;;;;;;;21.30;30.20;;;;;;467773;253;966;-67
2021/01/28 04:44:34;;;;;;;;;;;21.30;30.20;;;;;;467797;253;2193;-67
2021/01/28 04:46:35;;;;;;;;;;;21.20;30.10;;;;;;467775;253;1332;-67
2021/01/28 04:48:37;;;;;;;;;;;21.30;30.10;;;;;;467818;254;995;-67
2021/01/28 04:50:38;;;;;;;;;;;21.30;30.10;;;;;;467736;253;953;-68
2021/01/28 04:52:39;;;;;;;;;;;21.30;30.10;;;;;;467764;254;980;-67
2021/01/28 04:54:40;;;;;;;;;;;21.30;30.00;;;;;;467658;253;1074;-67
2021/01/28 04:56:42;;;;;;;;;;;21.30;30.00;;;;;;467730;252;1418;-67
2021/01/28 04:58:43;;;;;;;;;;;21.30;30.00;;;;;;467743;253;1214;-67
2021/01/28 05:00:44;;;;;;;;;;;21.40;30.00;;;;;;467794;253;1006;-67
2021/01/28 05:02:46;;;;;;;;;;;21.40;30.00;;;;;;467762;253;2188;-67
2021/01/28 05:04:47;;;;;;;;;;;21.40;30.00;;;;;;467742;253;990;-67
2021/01/28 05:06:48;;;;;;;;;;;21.40;30.00;;;;;;467722;253;1063;-67
2021/01/28 05:08:49;;;;;;;;;;;21.40;30.00;;;;;;467717;253;1156;-68
2021/01/28 05:10:51;;;;;;;;;;;21.40;30.00;;;;;;467731;253;990;-67
2021/01/28 05:12:53;;;;;;;;;;;21.40;30.00;;;;;;467799;253;1080;-67
2021/01/28 05:14:56;;;;;;;;;;;21.40;30.00;;;;;;467799;254;1213;-67
2021/01/28 05:16:57;;;;;;;;;;;21.40;30.00;;;;;;467781;253;981;-67
2021/01/28 05:18:59;;;;;;;;;;;21.50;30.00;;;;;;467721;253;1053;-67
2021/01/28 05:21:00;;;;;;;;;;;21.50;29.90;;;;;;467702;254;993;-67
2021/01/28 05:23:02;;;;;;;;;;;21.50;30.00;;;;;;467709;253;2196;-67
2021/01/28 05:25:03;;;;;;;;;;;21.50;29.90;;;;;;467700;253;1023;-67
2021/01/28 05:27:04;;;;;;;;;;;21.50;29.90;;;;;;467642;254;1181;-67
2021/01/28 05:29:05;;;;;;;;;;;21.50;29.90;;;;;;467697;254;1324;-67
2021/01/28 05:31:07;;;;;;;;;;;21.50;29.90;;;;;;467688;253;973;-67
2021/01/28 05:33:08;;;;;;;;;;;21.50;29.90;;;;;;467793;253;1169;-67
2021/01/28 05:35:09;;;;;;;;;;;21.60;29.90;;;;;;467713;253;1191;-67
2021/01/28 05:37:10;;;;;;;;;;;21.50;29.90;;;;;;467740;254;1230;-67
2021/01/28 05:39:12;;;;;;;;;;;21.60;29.90;;;;;;467687;253;1203;-67
2021/01/28 05:41:13;;;;;;;;;;;21.60;29.90;;;;;;467650;253;1078;-67
2021/01/28 05:43:14;;;;;;;;;;;21.60;29.90;;;;;;467700;253;2188;-67
2021/01/28 05:45:16;;;;;;;;;;;21.60;29.90;;;;;;467732;253;1193;-67
2021/01/28 05:47:17;;;;;;;;;;;21.60;29.90;;;;;;467604;254;1062;-67
2021/01/28 05:49:18;;;;;;;;;;;21.50;29.80;;;;;;467732;254;1481;-67
2021/01/28 05:51:20;;;;;;;;;;;21.60;29.90;;;;;;467544;253;1040;-67
2021/01/28 05:53:21;;;;;;;;;;;21.60;29.80;;;;;;467670;253;1079;-67
2021/01/28 05:55:22;;;;;;;;;;;21.60;29.90;;;;;;467655;253;1280;-67
2021/01/28 05:57:23;;;;;;;;;;;21.60;29.80;;;;;;467655;253;1058;-68
2021/01/28 05:59:25;;;;;;;;;;;21.60;29.80;;;;;;467494;253;1239;-68
2021/01/28 06:01:26;;;;;;;;;;;21.60;29.90;;;;;;467471;253;1068;-67
2021/01/28 06:03:27;;;;;;;;;;;21.60;29.90;;;;;;467408;254;2188;-67
2021/01/28 06:05:28;;;;;;;;;;;21.60;29.90;;;;;;467551;253;999;-67
2021/01/28 06:07:30;;;;;;;;;;;21.60;29.80;;;;;;467509;253;1051;-67
2021/01/28 06:09:31;;;;;;;;;;;21.60;29.90;;;;;;467440;253;1065;-68
2021/01/28 06:11:32;;;;;;;;;;;21.60;29.80;;;;;;467181;253;1097;-68
2021/01/28 06:13:33;;;;;;;;;;;21.60;29.80;;;;;;467229;254;1015;-68
2021/01/28 06:15:35;;;;;;;;;;;21.60;29.90;;;;;;467279;253;1215;-67
2021/01/28 06:17:37;;;;;;;;;;;21.60;29.80;;;;;;467251;253;1159;-67
2021/01/28 06:19:37;;;;;;;;;;;21.60;29.90;;;;;;467450;253;2210;-67
2021/01/28 06:21:39;;;;;;;;;;;21.60;29.90;;;;;;467491;253;1063;-68
2021/01/28 06:23:40;;;;;;;;;;;21.60;29.90;;;;;;467472;253;2192;-67
2021/01/28 06:25:41;;;;;;;;;;;21.70;29.90;;;;;;467463;254;1059;-68
2021/01/28 06:27:42;;;;;;;;;;;21.60;29.90;;;;;;467462;253;1281;-68
2021/01/28 06:29:44;;;;;;;;;;;21.60;29.90;;;;;;467508;253;1194;-67
2021/01/28 06:31:45;;;;;;;;;;;21.60;29.90;;;;;;467390;253;1074;-67
2021/01/28 06:33:46;;;;;;;;;;;21.60;29.90;;;;;;467415;253;1054;-67
2021/01/28 06:35:47;;;;;;;;;;;21.70;30.00;;;;;;467324;253;1119;-68
2021/01/28 06:37:49;;;;;;;;;;;21.70;29.90;;;;;;467318;253;1081;-67
2021/01/28 06:39:50;;;;;;;;;;;21.70;29.90;;;;;;467377;253;1030;-67
2021/01/28 06:41:51;;;;;;;;;;;21.70;29.90;;;;;;467145;254;1072;-67
2021/01/28 06:43:53;;;;;;;;;;;21.70;29.90;;;;;;467239;254;2192;-67
2021/01/28 06:45:54;;;;;;;;;;;21.70;29.90;;;;;;467262;253;1205;-67
2021/01/28 06:47:55;;;;;;;;;;;21.70;29.90;;;;;;467195;254;1097;-67
2021/01/28 06:49:57;;;;;;;;;;;21.70;29.90;;;;;;467385;252;1206;-67
2021/01/28 06:51:58;;;;;;;;;;;21.70;29.90;;;;;;467427;254;1006;-67
2021/01/28 06:53:59;;;;;;;;;;;21.80;29.90;;;;;;467337;253;1229;-67
2021/01/28 06:56:00;;;;;;;;;;;21.70;29.90;;;;;;467356;254;1079;-68
2021/01/28 06:58:02;;;;;;;;;;;21.70;29.90;;;;;;467227;254;1099;-67
2021/01/28 07:00:03;;;;;;;;;;;21.70;29.90;;;;;;467283;254;1172;-67
2021/01/28 07:02:04;;;;;;;;;;;21.70;29.90;;;;;;467202;253;1087;-68
2021/01/28 07:04:05;;;;;;;;;;;21.80;30.00;;;;;;467045;253;2149;-67
2021/01/28 07:06:07;;;;;;;;;;;21.80;29.90;;;;;;466944;254;1100;-67
2021/01/28 07:08:08;;;;;;;;;;;21.80;29.90;;;;;;467103;254;1110;-68
2021/01/28 07:10:09;;;;;;;;;;;21.80;29.90;;;;;;467097;253;1096;-68
2021/01/28 07:12:11;;;;;;;;;;;21.80;29.90;;;;;;467053;253;1126;-69
2021/01/28 07:14:12;;;;;;;;;;;21.80;29.90;;;;;;467207;253;1096;-67
2021/01/28 07:16:13;;;;;;;;;;;21.80;29.90;;;;;;467304;254;1151;-68
2021/01/28 07:18:14;;;;;;;;;;;21.80;30.00;;;;;;467213;253;1048;-67
2021/01/28 07:20:16;;;;;;;;;;;21.80;29.90;;;;;;467178;253;1135;-67
2021/01/28 07:22:17;;;;;;;;;;;21.80;29.90;;;;;;467270;253;1070;-67
2021/01/28 07:24:18;;;;;;;;;;;21.90;30.00;;;;;;467159;254;2199;-68
2021/01/28 07:26:20;;;;;;;;;;;21.90;30.00;;;;;;467221;254;1126;-67
2021/01/28 07:28:22;;;;;;;;;;;21.80;30.00;;;;;;467122;253;1030;-68
2021/01/28 07:30:22;;;;;;;;;;;21.90;30.00;;;;;;467132;255;2347;-68
2021/01/28 07:32:23;;;;;;;;;;;21.90;30.00;;;;;;467116;253;1072;-68
2021/01/28 07:34:25;;;;;;;;;;;21.80;30.00;;;;;;467213;253;1214;-67
2021/01/28 07:36:26;;;;;;;;;;;21.90;30.00;;;;;;467288;253;1127;-68
2021/01/28 07:38:27;;;;;;;;;;;21.90;30.00;;;;;;467326;254;1177;-67
2021/01/28 07:40:29;;;;;;;;;;;21.90;30.00;;;;;;467151;253;1025;-67
2021/01/28 07:42:30;;;;;;;;;;;21.90;30.00;;;;;;467096;253;1064;-67
2021/01/28 07:44:31;;;;;;;;;;;21.90;30.00;;;;;;467064;253;2146;-67
2021/01/28 07:46:32;;;;;;;;;;;21.90;30.00;;;;;;467108;254;1199;-67
2021/01/28 07:48:34;;;;;;;;;;;21.90;30.00;;;;;;467087;253;1058;-67
2021/01/28 07:50:40;;;;;;;;;;;21.90;30.00;;;;;;467107;253;1187;-67
2021/01/28 07:52:40;;;;;;;;;;;21.90;30.00;;;;;;466854;254;1709;-67
2021/01/28 07:54:41;;;;;;;;;;;21.90;30.00;;;;;;466846;254;1106;-67
2021/01/28 07:56:43;;;;;;;;;;;21.90;30.00;;;;;;466888;253;1114;-67
2021/01/28 07:58:44;;;;;;;;;;;21.90;30.00;;;;;;466788;254;1181;-67
2021/01/28 08:00:45;;;;;;;;;;;21.90;30.00;;;;;;466843;253;1162;-67
2021/01/28 08:02:46;;;;;;;;;;;21.90;30.00;;;;;;466841;253;1412;-67
2021/01/28 08:04:47;;;;;;;;;;;21.90;30.00;;;;;;466867;254;2205;-67
2021/01/28 08:06:49;;;;;;;;;;;21.90;30.00;;;;;;466924;253;1179;-67
2021/01/28 08:08:50;;;;;;;;;;;21.90;30.10;;;;;;466977;253;1104;-67
2021/01/28 08:10:51;;;;;;;;;;;21.90;30.10;;;;;;467106;253;986;-67
2021/01/28 08:12:53;;;;;;;;;;;21.90;30.10;;;;;;467108;254;1083;-68
2021/01/28 08:14:54;;;;;;;;;;;21.90;30.20;;;;;;467110;253;1281;-68
2021/01/28 08:16:56;;;;;;;;;;;21.90;30.20;;;;;;466914;254;1208;-68
2021/01/28 08:18:57;;;;;;;;;;;21.90;30.20;;;;;;467121;254;1086;-67
2021/01/28 08:20:58;;;;;;;;;;;21.90;30.30;;;;;;467151;253;1116;-67
2021/01/28 08:22:59;;;;;;;;;;;21.90;30.30;;;;;;467090;253;1102;-68
2021/01/28 08:25:01;;;;;;;;;;;21.90;30.30;;;;;;467141;253;2201;-67
2021/01/28 08:27:02;;;;;;;;;;;21.90;30.30;;;;;;467001;254;1122;-67
2021/01/28 08:29:04;;;;;;;;;;;22.00;30.30;;;;;;467136;253;1086;-68
2021/01/28 08:31:05;;;;;;;;;;;22.00;30.30;;;;;;466965;253;1211;-68
2021/01/28 08:33:06;;;;;;;;;;;22.00;30.30;;;;;;466953;254;1135;-67
2021/01/28 08:35:07;;;;;;;;;;;22.00;30.40;;;;;;466928;253;1087;-68
2021/01/28 08:37:09;;;;;;;;;;;22.00;30.40;;;;;;466944;254;1199;-67
2021/01/28 08:39:11;;;;;;;;;;;22.00;30.40;;;;;;466920;253;1097;-68
2021/01/28 08:41:14;;;;;;;;;;;22.00;30.40;;;;;;467020;254;1114;-67
2021/01/28 08:43:15;;;;;;;;;;;22.00;30.40;;;;;;466979;253;1169;-67
2021/01/28 08:45:16;;;;;;;;;;;22.00;30.40;;;;;;467133;253;2252;-68
2021/01/28 08:47:17;;;;;;;;;;;22.00;30.30;;;;;;467021;253;1207;-68
2021/01/28 08:49:19;;;;;;;;;;;22.00;30.40;;;;;;467122;253;1144;-68
2021/01/28 08:51:20;;;;;;;;;;;22.00;30.40;;;;;;467153;253;1126;-68
2021/01/28 08:53:21;;;;;;;;;;;22.00;30.30;;;;;;467079;253;1070;-67
2021/01/28 08:55:23;;;;;;;;;;;22.00;30.30;;;;;;467008;253;1149;-68
2021/01/28 08:57:24;;;;;;;;;;;22.00;30.40;;;;;;467090;253;1180;-67
2021/01/28 08:59:25;;;;;;;;;;;22.00;30.40;;;;;;466991;253;1203;-67
2021/01/28 09:01:27;;;;;;;;;;;22.10;30.40;;;;;;467043;253;1203;-67
2021/01/28 09:03:28;;;;;;;;;;;22.00;30.40;;;;;;466909;253;1055;-67
2021/01/28 09:05:30;;;;;;;;;;;22.00;30.30;;;;;;467033;254;2204;-67
2021/01/28 09:07:30;;;;;;;;;;;22.00;30.40;;;;;;466933;255;2163;-67
2021/01/28 09:09:32;;;;;;;;;;;22.00;30.40;;;;;;467011;254;1328;-68
2021/01/28 09:11:33;;;;;;;;;;;22.10;30.50;;;;;;467125;253;1320;-67
2021/01/28 09:13:34;;;;;;;;;;;22.00;30.50;;;;;;467075;253;1221;-67
2021/01/28 09:15:36;;;;;;;;;;;22.00;30.50;;;;;;467006;253;1128;-67
2021/01/28 09:17:37;;;;;;;;;;;22.10;30.50;;;;;;467037;253;1197;-67
2021/01/28 09:19:38;;;;;;;;;;;22.10;30.60;;;;;;466973;254;1285;-68
2021/01/28 09:21:39;;;;;;;;;;;22.10;30.60;;;;;;466984;253;1364;-67
2021/01/28 09:23:41;;;;;;;;;;;22.10;30.60;;;;;;466978;254;1334;-67
2021/01/28 09:25:42;;;;;;;;;;;22.10;30.60;;;;;;466928;253;2169;-68
2021/01/28 09:27:43;;;;;;;;;;;22.10;30.60;;;;;;466936;253;1352;-67
2021/01/28 09:29:44;;;;;;;;;;;22.10;30.60;;;;;;467100;253;1065;-67
2021/01/28 09:31:46;;;;;;;;;;;22.10;30.60;;;;;;467099;253;1329;-68
2021/01/28 09:33:47;;;;;;;;;;;22.10;30.60;;;;;;467166;253;1090;-67
2021/01/28 09:35:48;;;;;;;;;;;22.10;30.60;;;;;;466984;254;1196;-68
2021/01/28 09:37:50;;;;;;;;;;;22.10;30.60;;;;;;466756;253;1135;-68
2021/01/28 09:39:52;;;;;;;;;;;22.10;30.60;;;;;;467028;253;1339;-68
2021/01/28 09:41:52;;;;;;;;;;;22.10;30.60;;;;;;467052;253;1196;-68
2021/01/28 09:43:54;;;;;;;;;;;22.10;30.70;;;;;;466964;254;1108;-68
2021/01/28 09:45:55;;;;;;;;;;;22.10;30.70;;;;;;466826;253;2188;-68
2021/01/28 09:47:56;;;;;;;;;;;22.10;30.70;;;;;;466953;254;1180;-68
2021/01/28 09:49:57;;;;;;;;;;;22.10;30.70;;;;;;466843;254;1206;-68
2021/01/28 09:51:59;;;;;;;;;;;22.10;30.70;;;;;;466866;254;1120;-68
2021/01/28 09:54:00;;;;;;;;;;;22.10;30.70;;;;;;466893;254;1069;-68
2021/01/28 09:56:01;;;;;;;;;;;22.10;30.70;;;;;;466797;254;1171;-67
2021/01/28 09:58:05;;;;;;;;;;;22.10;30.70;;;;;;466898;253;1158;-68
2021/01/28 10:00:04;;;;;;;;;;;22.10;30.70;;;;;;466800;255;2117;-68
2021/01/28 10:02:05;;;;;;;;;;;22.10;30.70;;;;;;466940;254;1168;-68
2021/01/28 10:04:06;;;;;;;;;;;22.10;30.70;;;;;;466874;254;1104;-67
2021/01/28 10:06:08;;;;;;;;;;;22.20;30.70;;;;;;466808;253;2189;-67
2021/01/28 10:08:09;;;;;;;;;;;22.20;30.70;;;;;;466842;253;1019;-67
2021/01/28 10:10:10;;;;;;;;;;;22.10;30.70;;;;;;466861;253;1057;-68
2021/01/28 10:12:12;;;;;;;;;;;22.20;30.70;;;;;;466825;253;1089;-68
2021/01/28 10:14:13;;;;;;;;;;;22.20;30.80;;;;;;466807;253;1056;-68
2021/01/28 10:16:14;;;;;;;;;;;22.10;30.80;;;;;;466794;253;1179;-68
2021/01/28 10:18:15;;;;;;;;;;;22.10;30.80;;;;;;466817;253;1165;-67
2021/01/28 10:20:17;;;;;;;;;;;22.20;30.80;;;;;;466876;253;1078;-68
2021/01/28 10:22:18;;;;;;;;;;;22.10;30.80;;;;;;466980;253;1101;-68
2021/01/28 10:24:20;;;;;;;;;;;22.10;30.80;;;;;;466962;253;1205;-68
2021/01/28 10:26:21;;;;;;;;;;;22.10;30.80;;;;;;466837;253;2176;-68
2021/01/28 10:28:22;;;;;;;;;;;22.20;30.90;;;;;;466691;253;1133;-68
2021/01/28 10:30:23;;;;;;;;;;;22.20;30.90;;;;;;467050;253;1304;-68
2021/01/28 10:32:25;;;;;;;;;;;22.20;30.90;;;;;;467032;253;1184;-67
2021/01/28 10:34:26;;;;;;;;;;;22.20;30.90;;;;;;466971;253;1226;-68
2021/01/28 10:36:27;;;;;;;;;;;22.20;30.90;;;;;;466891;253;1164;-68
2021/01/28 10:38:28;;;;;;;;;;;22.20;30.90;;;;;;466891;253;1096;-68
2021/01/28 10:40:30;;;;;;;;;;;22.20;30.90;;;;;;466912;251;1228;-68
2021/01/28 10:42:31;;;;;;;;;;;22.20;30.90;;;;;;467025;253;1229;-68
2021/01/28 10:44:33;;;;;;;;;;;22.20;30.90;;;;;;467016;253;1278;-68
2021/01/28 10:46:34;;;;;;;;;;;22.20;30.90;;;;;;466941;254;2128;-68
2021/01/28 10:48:35;;;;;;;;;;;22.20;30.90;;;;;;466960;253;1596;-68
2021/01/28 10:50:36;;;;;;;;;;;22.20;30.90;;;;;;466933;253;1055;-68
2021/01/28 10:52:38;;;;;;;;;;;22.30;31.00;;;;;;466886;253;1049;-68
2021/01/28 10:54:39;;;;;;;;;;;22.30;31.00;;;;;;466913;250;1404;-68
2021/01/28 10:56:40;;;;;;;;;;;22.20;31.00;;;;;;466942;254;1107;-68
2021/01/28 10:58:41;;;;;;;;;;;22.30;31.00;;;;;;466940;254;1207;-68
2021/01/28 11:00:44;;;;;;;;;;;22.20;31.00;;;;;;466999;253;1350;-68
2021/01/28 11:02:44;;;;;;;;;;;22.30;31.10;;;;;;467326;255;2174;-68
2021/01/28 11:04:45;;;;;;;;;;;22.30;31.10;;;;;;466991;254;2176;-68
2021/01/28 11:06:47;;;;;;;;;;;22.30;31.10;;;;;;466996;253;1270;-68
2021/01/28 11:08:48;;;;;;;;;;;22.30;31.10;;;;;;467085;254;1260;-68
2021/01/28 11:10:49;;;;;;;;;;;22.30;31.10;;;;;;466879;253;1381;-68
2021/01/28 11:12:51;;;;;;;;;;;22.30;31.10;;;;;;466804;254;1257;-68
2021/01/28 11:14:52;;;;;;;;;;;22.30;31.10;;;;;;466958;253;1431;-68
2021/01/28 11:16:54;;;;;;;;;;;22.30;31.10;;;;;;467122;253;1290;-68
2021/01/28 11:18:57;;;;;;;;;;;22.30;31.10;;;;;;466968;253;1277;-68
2021/01/28 11:20:56;;;;;;;;;;;22.30;31.10;;;;;;466712;254;2245;-68
2021/01/28 11:22:57;;;;;;;;;;;22.30;31.10;;;;;;466626;255;1571;-68
2021/01/28 11:24:59;;;;;;;;;;;22.30;31.10;;;;;;466908;253;2157;-68
2021/01/28 11:27:00;;;;;;;;;;;22.30;31.10;;;;;;466812;253;1346;-68
2021/01/28 11:29:04;;;;;;;;;;;22.30;31.20;;;;;;466862;253;1314;-68
2021/01/28 11:31:04;;;;;;;;;;;22.40;31.10;;;;;;467103;254;2187;-68
2021/01/28 11:33:06;;;;;;;;;;;22.30;31.10;;;;;;467073;255;1305;-68
2021/01/28 11:35:06;;;;;;;;;;;22.40;31.20;;;;;;467238;255;2115;-68
2021/01/28 11:37:07;;;;;;;;;;;22.40;31.20;;;;;;467233;253;1338;-68
2021/01/28 11:39:09;;;;;;;;;;;22.40;31.20;;;;;;467008;253;1261;-68
2021/01/28 11:41:10;;;;;;;;;;;22.40;31.20;;;;;;467162;253;1177;-68
2021/01/28 11:43:11;;;;;;;;;;;22.40;31.10;;;;;;467003;254;1248;-68
2021/01/28 11:45:12;;;;;;;;;;;22.40;31.20;;;;;;467061;253;2192;-68
2021/01/28 11:47:14;;;;;;;;;;;22.40;31.20;;;;;;467086;253;1376;-68
2021/01/28 11:49:15;;;;;;;;;;;22.40;31.20;;;;;;466908;253;1275;-68
2021/01/28 11:51:16;;;;;;;;;;;22.40;31.20;;;;;;466858;253;1210;-68
2021/01/28 11:53:18;;;;;;;;;;;22.40;31.20;;;;;;466936;254;1244;-68
2021/01/28 11:55:19;;;;;;;;;;;22.40;31.20;;;;;;467158;254;1358;-67
2021/01/28 11:57:20;;;;;;;;;;;22.50;31.20;;;;;;467218;253;1066;-68